createdAt,value
2022-10-24T00:01:18.767Z,100309.03
2022-10-24T00:03:45.754Z,100308.00
2022-10-24T00:06:13.930Z,100305.47
2022-10-24T00:08:42.533Z,100306.47
2022-10-24T00:11:15.107Z,100309.03
2022-10-24T00:13:42.167Z,100299.31
2022-10-24T00:16:14.002Z,100304.75
2022-10-24T00:18:41.278Z,100300.19
2022-10-24T00:21:08.532Z,100302.72
2022-10-24T00:23:35.929Z,100297.97
2022-10-24T00:26:04.554Z,100296.75
2022-10-24T00:28:33.305Z,100296.56
2022-10-24T00:31:00.179Z,100292.81
2022-10-24T00:33:27.316Z,100287.19
2022-10-24T00:36:20.600Z,100287.19
2022-10-24T00:38:47.443Z,100286.16
2022-10-24T00:41:35.145Z,100280.91
2022-10-24T00:44:29.587Z,100283.25
2022-10-24T00:47:10.487Z,100285.97
2022-10-24T00:50:00.667Z,100288.72
2022-10-24T00:52:33.530Z,100284.97
2022-10-24T00:55:06.004Z,100280.34
2022-10-24T00:57:53.376Z,100274.91
2022-10-24T01:00:26.443Z,100273.88
2022-10-24T01:02:53.236Z,100275.75
2022-10-24T01:05:21.603Z,100264.19
2022-10-24T01:08:07.674Z,100269.66
2022-10-24T01:11:07.858Z,100264.38
2022-10-24T01:14:08.383Z,100266.25
2022-10-24T01:16:56.601Z,100265.59
2022-10-24T01:19:35.212Z,100270.38
2022-10-24T01:22:13.499Z,100271.41
2022-10-24T01:24:58.009Z,100269.69
2022-10-24T01:27:33.500Z,100268.69
2022-10-24T01:30:07.054Z,100266.78
2022-10-24T01:32:52.413Z,100267.47
2022-10-24T01:35:53.636Z,100260.16
2022-10-24T01:38:42.427Z,100254.50
2022-10-24T01:41:13.327Z,100252.63
2022-10-24T01:44:18.571Z,100254.69
2022-10-24T01:47:16.275Z,100240.91
2022-10-24T01:49:52.534Z,100240.91
2022-10-24T01:52:20.145Z,100228.13
2022-10-24T01:54:48.900Z,100238.19
2022-10-24T01:57:16.440Z,100232.72
2022-10-24T01:59:49.194Z,100233.75
2022-10-24T02:02:42.009Z,100224.75
2022-10-24T02:05:17.028Z,100227.47
2022-10-24T02:07:47.650Z,100236.66
2022-10-24T02:10:26.062Z,100228.50
2022-10-24T02:12:57.242Z,100224.06
2022-10-24T02:15:31.301Z,100228.69
2022-10-24T02:17:58.632Z,100230.38
2022-10-24T02:20:41.577Z,100229.53
2022-10-24T02:23:15.090Z,100229.53
2022-10-24T02:28:22.985Z,100232.25
2022-10-24T02:30:56.419Z,100222.38
2022-10-24T02:33:26.763Z,100221.53
2022-10-24T02:35:55.913Z,100219.84
2022-10-24T02:38:28.533Z,100216.28
2022-10-24T02:40:57.632Z,100228.19
2022-10-24T02:43:25.823Z,100215.94
2022-10-24T02:45:54.559Z,100219.69
2022-10-24T02:48:26.837Z,100222.41
2022-10-24T02:50:53.352Z,100231.25
2022-10-24T02:53:21.833Z,100226.81
2022-10-24T02:55:50.081Z,100229.53
2022-10-24T02:58:16.885Z,100225.78
2022-10-24T03:00:43.684Z,100222.94
2022-10-24T03:03:10.206Z,100221.06
2022-10-24T03:05:36.705Z,100224.94
2022-10-24T03:08:03.458Z,100227.66
2022-10-24T03:10:30.033Z,100228.53
2022-10-24T03:12:56.517Z,100226.81
2022-10-24T03:15:24.222Z,100224.09
2022-10-24T03:17:50.944Z,100211.34
2022-10-24T03:20:17.745Z,100221.38
2022-10-24T03:22:44.189Z,100229.53
2022-10-24T03:25:15.074Z,100223.06
2022-10-24T03:27:41.828Z,100223.06
2022-10-24T03:30:09.209Z,100225.78
2022-10-24T03:32:36.253Z,100222.22
2022-10-24T03:35:11.696Z,100235.84
2022-10-24T03:37:40.972Z,100232.97
2022-10-24T03:40:08.517Z,100222.22
2022-10-24T03:42:35.053Z,100217.81
2022-10-24T03:45:06.204Z,100222.59
2022-10-24T03:47:32.673Z,100218.16
2022-10-24T03:49:59.149Z,100218.34
2022-10-24T03:52:25.892Z,100229.25
2022-10-24T03:54:53.955Z,100223.78
2022-10-24T03:59:48.023Z,100223.97
2022-10-24T04:02:14.621Z,100216.84
2022-10-24T04:04:44.944Z,100220.59
2022-10-24T04:07:11.458Z,100223.31
2022-10-24T04:09:38.009Z,100221.44
2022-10-24T04:12:04.907Z,100215.13
2022-10-24T04:14:32.903Z,100216.00
2022-10-24T04:16:59.436Z,100220.59
2022-10-24T04:19:26.031Z,100228.56
2022-10-24T04:21:52.547Z,100223.31
2022-10-24T04:24:21.915Z,100225.84
2022-10-24T04:26:48.405Z,100221.63
2022-10-24T04:29:15.000Z,100220.75
2022-10-24T04:31:41.501Z,100213.63
2022-10-24T04:34:08.925Z,100220.75
2022-10-24T04:36:35.380Z,100209.03
2022-10-24T04:39:02.389Z,100223.50
2022-10-24T04:41:28.933Z,100211.75
2022-10-24T04:43:55.534Z,100209.69
2022-10-24T04:46:26.455Z,100212.41
2022-10-24T04:48:53.575Z,100209.50
2022-10-24T04:51:22.406Z,100214.13
2022-10-24T04:53:50.264Z,100214.97
2022-10-24T04:56:41.614Z,100226.88
2022-10-24T04:59:08.087Z,100220.22
2022-10-24T05:01:34.929Z,100227.72
2022-10-24T05:04:06.213Z,100223.50
2022-10-24T05:06:32.711Z,100237.09
2022-10-24T05:08:59.239Z,100233.34
2022-10-24T05:11:26.558Z,100236.75
2022-10-24T05:13:53.127Z,100228.38
2022-10-24T05:16:19.640Z,100234.69
2022-10-24T05:18:46.088Z,100236.38
2022-10-24T05:21:12.647Z,100235.16
2022-10-24T05:23:39.156Z,100239.59
2022-10-24T05:26:06.970Z,100231.09
2022-10-24T05:28:33.531Z,100220.03
2022-10-24T05:31:00.124Z,100246.41
2022-10-24T05:33:26.802Z,100242.84
2022-10-24T05:35:53.813Z,100242.84
2022-10-24T05:38:20.381Z,100244.53
2022-10-24T05:40:49.130Z,100244.53
2022-10-24T05:43:16.404Z,100245.38
2022-10-24T05:45:44.348Z,100251.50
2022-10-24T05:48:10.862Z,100253.00
2022-10-24T05:50:37.495Z,100243.81
2022-10-24T05:53:04.416Z,100245.50
2022-10-24T05:55:35.836Z,100251.63
2022-10-24T05:58:03.322Z,100252.28
2022-10-24T06:00:30.027Z,100252.94
2022-10-24T06:02:56.502Z,100263.47
2022-10-24T06:05:24.835Z,100257.88
2022-10-24T06:07:51.333Z,100256.84
2022-10-24T06:10:17.904Z,100264.84
2022-10-24T06:12:44.678Z,100249.34
2022-10-24T06:15:12.528Z,100242.19
2022-10-24T06:17:38.997Z,100256.66
2022-10-24T06:20:05.878Z,100252.91
2022-10-24T06:22:32.450Z,100256.50
2022-10-24T06:25:03.460Z,100252.44
2022-10-24T06:27:30.018Z,100263.16
2022-10-24T06:29:56.485Z,100265.19
2022-10-24T06:32:23.127Z,100270.66
2022-10-24T06:34:53.751Z,100274.22
2022-10-24T06:37:20.308Z,100283.25
2022-10-24T06:39:46.800Z,100285.13
2022-10-24T06:42:13.491Z,100277.78
2022-10-24T06:44:46.320Z,100277.09
2022-10-24T06:47:14.909Z,100278.13
2022-10-24T06:49:41.430Z,100277.44
2022-10-24T06:52:08.848Z,100274.91
2022-10-24T06:54:36.748Z,100288.53
2022-10-24T06:57:10.038Z,100294.81
2022-10-24T06:59:36.511Z,100284.97
2022-10-24T07:02:05.843Z,100294.16
2022-10-24T07:04:36.670Z,100300.63
2022-10-24T07:07:03.210Z,100300.63
2022-10-24T07:09:30.511Z,100304.38
2022-10-24T07:11:57.126Z,100306.25
2022-10-24T07:14:48.638Z,100301.00
2022-10-24T07:17:16.627Z,100310.84
2022-10-24T07:19:44.398Z,100325.50
2022-10-24T07:22:10.896Z,100319.88
2022-10-24T07:24:37.901Z,100320.53
2022-10-24T07:27:04.442Z,100320.53
2022-10-24T07:29:32.016Z,100322.06
2022-10-24T07:31:59.496Z,100329.19
2022-10-24T07:34:30.607Z,100331.06
2022-10-24T07:36:57.072Z,100333.28
2022-10-24T07:39:23.550Z,100335.84
2022-10-24T07:41:50.332Z,100332.09
2022-10-24T07:44:18.166Z,100337.19
2022-10-24T07:46:44.622Z,100334.09
2022-10-24T07:49:11.321Z,100342.75
2022-10-24T07:51:37.785Z,100346.63
2022-10-24T07:54:31.775Z,100346.28
2022-10-24T07:57:01.064Z,100344.69
2022-10-24T07:59:41.269Z,100342.66
2022-10-24T08:02:11.578Z,100348.56
2022-10-24T08:04:42.192Z,100345.50
2022-10-24T08:07:13.291Z,100356.03
2022-10-24T08:09:42.421Z,100359.41
2022-10-24T08:12:08.939Z,100390.06
2022-10-24T08:14:39.820Z,100395.34
2022-10-24T08:17:06.485Z,100392.44
2022-10-24T08:19:33.785Z,100385.94
2022-10-24T08:22:01.221Z,100388.31
2022-10-24T08:24:30.597Z,100389.81
2022-10-24T08:26:57.101Z,100374.13
2022-10-24T08:29:24.990Z,100385.56
2022-10-24T08:31:53.551Z,100397.97
2022-10-24T08:34:24.291Z,100394.88
2022-10-24T08:36:51.381Z,100398.28
2022-10-24T08:39:18.930Z,100409.84
2022-10-24T08:41:50.957Z,100414.09
2022-10-24T08:44:40.112Z,100411.84
2022-10-24T08:47:09.959Z,100415.06
2022-10-24T08:49:50.327Z,100413.19
2022-10-24T08:52:28.564Z,100412.81
2022-10-24T08:55:07.005Z,100410.75
2022-10-24T08:57:34.794Z,100415.00
2022-10-24T09:00:20.925Z,100418.75
2022-10-24T09:02:56.822Z,100424.03
2022-10-24T09:05:36.506Z,100423.00
2022-10-24T09:08:20.294Z,100430.00
2022-10-24T09:10:56.305Z,100428.41
2022-10-24T09:13:25.757Z,100430.41
2022-10-24T09:15:52.326Z,100438.72
2022-10-24T09:18:27.098Z,100440.81
2022-10-24T09:20:54.821Z,100430.81
2022-10-24T09:23:23.902Z,100439.19
2022-10-24T09:25:57.898Z,100434.41
2022-10-24T09:28:24.880Z,100443.47
2022-10-24T09:30:52.514Z,100439.63
2022-10-24T09:33:31.770Z,100447.53
2022-10-24T09:36:02.654Z,100445.75
2022-10-24T09:38:35.322Z,100457.63
2022-10-24T09:41:30.726Z,100457.91
2022-10-24T09:44:31.307Z,100452.06
2022-10-24T09:46:58.481Z,100461.28
2022-10-24T09:49:33.368Z,100465.44
2022-10-24T09:52:04.962Z,100463.94
2022-10-24T09:54:36.806Z,100468.09
2022-10-24T09:57:12.118Z,100472.06
2022-10-24T09:59:46.907Z,100468.47
2022-10-24T10:02:34.952Z,100482.31
2022-10-24T10:05:18.118Z,100490.03
2022-10-24T10:07:48.539Z,100487.97
2022-10-24T10:10:17.975Z,100493.53
2022-10-24T10:12:48.209Z,100484.66
2022-10-24T10:15:35.910Z,100492.66
2022-10-24T10:18:21.917Z,100492.25
2022-10-24T10:21:07.934Z,100496.66
2022-10-24T10:23:52.963Z,100502.56
2022-10-24T10:26:30.793Z,100493.00
2022-10-24T10:28:59.181Z,100497.69
2022-10-24T10:31:40.609Z,100495.22
2022-10-24T10:34:20.479Z,100502.38
2022-10-24T10:37:10.026Z,100507.00
2022-10-24T10:39:57.454Z,100517.50
2022-10-24T10:42:47.993Z,100512.81
2022-10-24T10:45:29.448Z,100526.69
2022-10-24T10:48:32.903Z,100525.84
2022-10-24T10:51:16.429Z,100530.34
2022-10-24T10:53:55.357Z,100535.69
2022-10-24T10:56:42.355Z,100541.88
2022-10-24T10:59:28.632Z,100546.66
2022-10-24T11:02:14.680Z,100533.88
2022-10-24T11:05:11.085Z,100541.03
2022-10-24T11:07:44.976Z,100547.75
2022-10-24T11:10:23.354Z,100548.53
2022-10-24T11:12:49.969Z,100549.97
2022-10-24T11:15:34.184Z,100551.78
2022-10-24T11:18:14.573Z,100559.06
2022-10-24T11:20:53.258Z,100560.44
2022-10-24T11:23:29.332Z,100562.19
2022-10-24T11:26:18.896Z,100567.41
2022-10-24T11:29:01.368Z,100570.06
2022-10-24T11:31:37.605Z,100584.09
2022-10-24T11:34:14.957Z,100577.13
2022-10-24T11:37:04.016Z,100573.16
2022-10-24T11:39:38.637Z,100585.50
2022-10-24T11:42:29.461Z,100575.94
2022-10-24T11:45:33.125Z,100570.97
2022-10-24T11:48:25.935Z,100566.75
2022-10-24T11:50:56.002Z,100573.53
2022-10-24T11:53:28.594Z,100567.72
2022-10-24T11:56:05.132Z,100566.00
2022-10-24T11:58:33.460Z,100568.25
2022-10-24T12:01:33.803Z,100572.97
2022-10-24T12:04:34.025Z,100577.03
2022-10-24T12:07:16.271Z,100580.41
2022-10-24T12:09:48.985Z,100580.09
2022-10-24T12:12:27.407Z,100580.44
2022-10-24T12:15:32.220Z,100581.25
2022-10-24T12:18:05.449Z,100569.41
2022-10-24T12:20:33.445Z,100567.00
2022-10-24T12:23:02.504Z,100564.59
2022-10-24T12:25:38.173Z,100558.56
2022-10-24T12:28:25.807Z,100564.56
2022-10-24T12:31:12.992Z,100569.69
2022-10-24T12:33:39.658Z,100564.94
2022-10-24T12:36:10.880Z,100563.88
2022-10-24T12:38:37.303Z,100566.44
2022-10-24T12:41:27.114Z,100559.44
2022-10-24T12:44:32.196Z,100565.25
2022-10-24T12:46:59.398Z,100559.94
2022-10-24T12:49:31.470Z,100570.78
2022-10-24T12:51:59.013Z,100565.66
2022-10-24T12:54:43.617Z,100581.56
2022-10-24T12:57:12.968Z,100574.75
2022-10-24T12:59:53.970Z,100574.75
2022-10-24T13:02:20.556Z,100579.47
2022-10-24T13:05:10.194Z,100572.16
2022-10-24T13:08:11.772Z,100567.13
2022-10-24T13:10:57.102Z,100564.78
2022-10-24T13:13:55.052Z,100559.66
2022-10-24T13:16:59.019Z,100569.88
2022-10-24T13:19:27.197Z,100560.53
2022-10-24T13:21:55.887Z,100565.56
2022-10-24T13:24:33.915Z,100562.63
2022-10-24T13:27:11.717Z,100570.06
2022-10-24T13:29:39.375Z,100578.72
2022-10-24T13:32:06.781Z,100566.72
2022-10-24T13:34:42.053Z,100570.53
2022-10-24T13:37:40.763Z,100572.81
2022-10-24T13:40:14.085Z,100582.25
2022-10-24T13:42:48.486Z,100575.47
2022-10-24T13:45:33.627Z,100582.19
2022-10-24T13:48:13.156Z,100582.59
2022-10-24T13:50:51.860Z,100589.66
2022-10-24T13:53:31.098Z,100592.72
2022-10-24T13:56:10.315Z,100599.53
2022-10-24T13:58:44.671Z,100596.06
2022-10-24T14:01:20.273Z,100592.59
2022-10-24T14:03:48.045Z,100604.13
2022-10-24T14:06:15.905Z,100601.19
2022-10-24T14:08:55.145Z,100592.59
2022-10-24T14:11:30.987Z,100591.63
2022-10-24T14:14:25.231Z,100596.06
2022-10-24T14:17:28.722Z,100592.09
2022-10-24T14:20:01.565Z,100590.22
2022-10-24T14:22:36.145Z,100598.59
2022-10-24T14:25:03.014Z,100604.28
2022-10-24T14:27:30.097Z,100607.00
2022-10-24T14:30:02.712Z,100609.09
2022-10-24T14:32:30.885Z,100614.09
2022-10-24T14:37:36.075Z,100613.63
2022-10-24T14:40:04.481Z,100608.16
2022-10-24T14:42:31.403Z,100607.97
2022-10-24T14:44:59.939Z,100609.66
2022-10-24T14:47:28.787Z,100610.31
2022-10-24T14:49:59.798Z,100613.25
2022-10-24T14:52:41.265Z,100617.41
2022-10-24T14:55:18.237Z,100622.59
2022-10-24T14:57:50.371Z,100614.75
2022-10-24T15:00:25.230Z,100619.94
2022-10-24T15:02:54.702Z,100618.44
2022-10-24T15:05:31.441Z,100629.09
2022-10-24T15:08:20.476Z,100633.06
2022-10-24T15:10:44.456Z,100639.09
2022-10-24T15:13:12.401Z,100629.75
2022-10-24T15:15:59.898Z,100625.22
2022-10-24T15:18:28.711Z,100647.28
2022-10-24T15:21:14.607Z,100647.34
2022-10-24T15:23:50.127Z,100645.00
2022-10-24T15:26:39.219Z,100650.66
2022-10-24T15:29:05.616Z,100640.75
2022-10-24T15:31:34.204Z,100648.66
2022-10-24T15:34:02.723Z,100648.19
2022-10-24T15:36:31.961Z,100641.78
2022-10-24T15:39:27.617Z,100651.19
2022-10-24T15:41:54.247Z,100655.16
2022-10-24T15:44:26.747Z,100651.25
2022-10-24T15:46:53.849Z,100655.75
2022-10-24T15:49:20.599Z,100660.06
2022-10-24T15:51:50.506Z,100659.75
2022-10-24T15:54:22.519Z,100663.03
2022-10-24T15:56:49.237Z,100660.00
2022-10-24T15:59:15.875Z,100664.28
2022-10-24T16:01:50.916Z,100671.81
2022-10-24T16:04:18.263Z,100676.97
2022-10-24T16:06:44.871Z,100678.38
2022-10-24T16:09:17.928Z,100685.41
2022-10-24T16:11:45.379Z,100677.75
2022-10-24T16:14:21.472Z,100686.31
2022-10-24T16:16:48.047Z,100686.66
2022-10-24T16:19:14.718Z,100687.69
2022-10-24T16:21:41.967Z,100684.47
2022-10-24T16:24:13.478Z,100695.75
2022-10-24T16:26:40.661Z,100702.59
2022-10-24T16:29:07.441Z,100702.75
2022-10-24T16:31:34.027Z,100707.53
2022-10-24T16:34:09.656Z,100704.13
2022-10-24T16:36:36.177Z,100711.47
2022-10-24T16:39:03.825Z,100708.94
2022-10-24T16:41:30.330Z,100715.59
2022-10-24T16:44:04.557Z,100707.09
2022-10-24T16:46:31.037Z,100711.03
2022-10-24T16:48:57.790Z,100706.78
2022-10-24T16:51:31.997Z,100716.84
2022-10-24T16:54:04.084Z,100716.66
2022-10-24T16:56:30.997Z,100716.66
2022-10-24T16:58:57.786Z,100726.72
2022-10-24T17:01:27.128Z,100721.44
2022-10-24T17:03:53.929Z,100731.84
2022-10-24T17:06:20.463Z,100741.06
2022-10-24T17:08:46.993Z,100741.44
2022-10-24T17:11:39.448Z,100739.75
2022-10-24T17:14:03.877Z,100742.13
2022-10-24T17:16:30.398Z,100735.31
2022-10-24T17:19:12.402Z,100736.69
2022-10-24T17:21:42.518Z,100740.78
2022-10-24T17:24:13.493Z,100739.13
2022-10-24T17:26:41.226Z,100741.50
2022-10-24T17:29:08.525Z,100754.81
2022-10-24T17:31:35.609Z,100757.00
2022-10-24T17:34:03.878Z,100763.66
2022-10-24T17:36:36.629Z,100759.72
2022-10-24T17:39:17.642Z,100762.97
2022-10-24T17:41:44.520Z,100758.03
2022-10-24T17:44:16.474Z,100758.56
2022-10-24T17:46:44.502Z,100763.16
2022-10-24T17:49:15.478Z,100769.78
2022-10-24T17:51:47.227Z,100770.31
2022-10-24T17:54:18.672Z,100774.22
2022-10-24T17:56:45.308Z,100767.06
2022-10-24T17:59:11.862Z,100774.56
2022-10-24T18:01:38.652Z,100769.63
2022-10-24T18:04:09.355Z,100768.25
2022-10-24T18:06:39.406Z,100772.50
2022-10-24T18:09:09.882Z,100773.84
2022-10-24T18:11:36.366Z,100770.44
2022-10-24T18:14:04.461Z,100772.47
2022-10-24T18:16:31.250Z,100769.06
2022-10-24T18:18:57.732Z,100769.22
2022-10-24T18:21:25.390Z,100772.97
2022-10-24T18:23:52.853Z,100771.44
2022-10-24T18:26:22.497Z,100777.75
2022-10-24T18:28:51.347Z,100777.91
2022-10-24T18:31:22.295Z,100774.50
2022-10-24T18:33:49.540Z,100780.28
2022-10-24T18:36:20.939Z,100770.72
2022-10-24T18:38:47.689Z,100780.06
2022-10-24T18:41:38.614Z,100777.69
2022-10-24T18:44:22.330Z,100793.31
2022-10-24T18:46:50.074Z,100785.31
2022-10-24T18:49:16.813Z,100792.47
2022-10-24T18:52:03.692Z,100779.88
2022-10-24T18:54:45.037Z,100787.88
2022-10-24T18:57:22.094Z,100775.81
2022-10-24T18:59:48.675Z,100773.25
2022-10-24T19:02:24.945Z,100774.28
2022-10-24T19:05:05.244Z,100772.41
2022-10-24T19:07:31.881Z,100789.91
2022-10-24T19:09:58.466Z,100805.72
2022-10-24T19:12:26.243Z,100805.91
2022-10-24T19:14:56.910Z,100815.94
2022-10-24T19:17:24.231Z,100806.38
2022-10-24T19:19:51.418Z,100791.94
2022-10-24T19:22:17.852Z,100787.66
2022-10-24T19:24:48.254Z,100803.47
2022-10-24T19:27:14.810Z,100796.81
2022-10-24T19:29:41.258Z,100799.72
2022-10-24T19:32:07.809Z,100799.88
2022-10-24T19:34:38.425Z,100801.41
2022-10-24T19:37:04.943Z,100804.81
2022-10-24T19:39:33.892Z,100807.72
2022-10-24T19:42:00.688Z,100814.16
2022-10-24T19:44:30.075Z,100805.66
2022-10-24T19:46:56.609Z,100807.69
2022-10-24T19:49:23.070Z,100821.44
2022-10-24T19:51:51.350Z,100831.66
2022-10-24T19:54:18.237Z,100823.97
2022-10-24T19:56:44.762Z,100818.84
2022-10-24T19:59:12.281Z,100830.06
2022-10-24T20:01:38.969Z,100825.81
2022-10-24T20:04:09.237Z,100834.13
2022-10-24T20:06:35.682Z,100836.31
2022-10-24T20:09:02.526Z,100829.16
2022-10-24T20:11:29.110Z,100838.50
2022-10-24T20:13:55.701Z,100836.78
2022-10-24T20:16:22.672Z,100837.81
2022-10-24T20:18:49.250Z,100837.09
2022-10-24T20:21:17.822Z,100837.38
2022-10-24T20:23:46.594Z,100838.03
2022-10-24T20:26:16.431Z,100844.78
2022-10-24T20:28:46.313Z,100845.13
2022-10-24T20:31:26.446Z,100847.84
2022-10-24T20:33:53.156Z,100849.84
2022-10-24T20:36:23.545Z,100857.31
2022-10-24T20:38:50.087Z,100855.78
2022-10-24T20:41:16.615Z,100856.25
2022-10-24T20:43:43.233Z,100866.44
2022-10-24T20:46:14.215Z,100866.06
2022-10-24T20:48:40.725Z,100872.81
2022-10-24T20:51:10.142Z,100870.41
2022-10-24T20:53:37.338Z,100867.00
2022-10-24T20:56:10.508Z,100868.00
2022-10-24T20:58:39.169Z,100867.31
2022-10-24T21:01:26.884Z,100871.38
2022-10-24T21:03:55.027Z,100878.50
2022-10-24T21:06:33.685Z,100874.09
2022-10-24T21:11:35.411Z,100888.38
2022-10-24T21:14:12.535Z,100885.81
2022-10-24T21:16:39.202Z,100893.97
2022-10-24T21:19:05.660Z,100896.84
2022-10-24T21:21:32.458Z,100900.41
2022-10-24T21:24:06.896Z,100901.09
2022-10-24T21:26:39.384Z,100903.66
2022-10-24T21:29:31.620Z,100912.66
2022-10-24T21:31:53.401Z,100918.41
2022-10-24T21:34:25.918Z,100926.72
2022-10-24T21:36:54.530Z,100925.19
2022-10-24T21:39:21.036Z,100926.19
2022-10-24T21:41:47.519Z,100923.47
2022-10-24T21:44:18.059Z,100924.47
2022-10-24T21:46:44.543Z,100930.78
2022-10-24T21:49:11.049Z,100940.94
2022-10-24T21:51:39.174Z,100929.38
2022-10-24T21:54:25.393Z,100936.13
2022-10-24T21:56:51.954Z,100944.28
2022-10-24T21:59:20.780Z,100941.56
2022-10-24T22:01:48.821Z,100944.44
2022-10-24T22:04:20.120Z,100947.59
2022-10-24T22:06:47.159Z,100956.38
2022-10-24T22:09:18.485Z,100958.50
2022-10-24T22:11:45.441Z,100960.22
2022-10-24T22:14:14.624Z,100960.53
2022-10-24T22:16:41.914Z,100960.53
2022-10-24T22:19:10.290Z,100971.53
2022-10-24T22:21:42.559Z,100964.25
2022-10-24T22:24:19.421Z,100957.97
2022-10-24T22:26:46.595Z,100966.25
2022-10-24T22:29:16.180Z,100971.16
2022-10-24T22:31:43.344Z,100976.03
2022-10-24T22:34:19.979Z,100969.59
2022-10-24T22:37:05.453Z,100977.59
2022-10-24T22:39:32.854Z,100972.16
2022-10-24T22:41:59.834Z,100966.88
2022-10-24T22:44:28.114Z,100973.47
2022-10-24T22:47:15.995Z,100981.59
2022-10-24T22:50:07.430Z,100975.44
2022-10-24T22:52:34.346Z,100980.88
2022-10-24T22:55:03.908Z,100985.31
2022-10-24T22:57:31.176Z,100980.88
2022-10-24T22:59:57.767Z,100986.47
2022-10-24T23:02:36.382Z,100983.91
2022-10-24T23:05:13.789Z,100984.91
2022-10-24T23:07:51.775Z,100985.75
2022-10-24T23:10:22.896Z,100993.91
2022-10-24T23:12:50.327Z,100998.31
2022-10-24T23:15:22.715Z,100998.47
2022-10-24T23:17:50.238Z,101000.66
2022-10-24T23:20:22.994Z,101004.38
2022-10-24T23:22:58.192Z,101001.34
2022-10-24T23:25:37.279Z,101011.50
2022-10-24T23:28:33.636Z,101019.81
2022-10-24T23:31:00.292Z,101019.81
2022-10-24T23:33:29.210Z,101019.50
2022-10-24T23:36:00.412Z,101025.09
2022-10-24T23:38:27.554Z,101022.53
2022-10-24T23:40:54.861Z,101034.22
2022-10-24T23:43:23.074Z,101024.94
2022-10-24T23:46:06.914Z,101020.34
2022-10-24T23:48:51.494Z,101025.50
2022-10-24T23:51:24.618Z,101025.50
2022-10-24T23:53:55.932Z,101028.91
2022-10-24T23:56:25.108Z,101040.63
2022-10-24T23:58:52.309Z,101028.63
